createdAt,value
2018-05-04T00:00:06.285Z,14.25
2018-05-04T00:01:05.706Z,14.31
2018-05-04T00:02:06.348Z,14.31
2018-05-04T00:03:05.770Z,14.38
2018-05-04T00:04:06.591Z,14.25
2018-05-04T00:05:06.001Z,14.31
2018-05-04T00:06:06.341Z,14.25
2018-05-04T00:07:06.443Z,14.25
2018-05-04T00:08:06.437Z,14.25
2018-05-04T00:09:05.613Z,14.19
2018-05-04T00:10:05.771Z,14.12
2018-05-04T00:11:05.942Z,14.00
2018-05-04T00:12:06.421Z,13.94
2018-05-04T00:13:05.532Z,13.94
2018-05-04T00:14:06.192Z,13.94
2018-05-04T00:15:06.168Z,13.88
2018-05-04T00:16:06.027Z,13.81
2018-05-04T00:17:06.098Z,13.75
2018-05-04T00:18:06.412Z,13.75
2018-05-04T00:19:05.714Z,13.75
2018-05-04T00:20:06.419Z,13.75
2018-05-04T00:21:05.851Z,13.75
2018-05-04T00:22:06.128Z,13.75
2018-05-04T00:23:05.781Z,13.75
2018-05-04T00:24:06.333Z,13.75
2018-05-04T00:25:06.168Z,13.69
2018-05-04T00:26:06.424Z,13.69
2018-05-04T00:27:06.417Z,13.69
2018-05-04T00:28:05.619Z,13.69
2018-05-04T00:29:05.870Z,13.75
2018-05-04T00:30:05.735Z,13.75
2018-05-04T00:31:11.441Z,13.69
2018-05-04T00:32:06.085Z,13.69
2018-05-04T00:33:05.696Z,13.69
2018-05-04T00:34:05.597Z,13.81
2018-05-04T00:35:05.702Z,13.69
2018-05-04T00:36:06.366Z,13.75
2018-05-04T00:37:05.528Z,13.69
2018-05-04T00:38:05.528Z,13.69
2018-05-04T00:39:06.529Z,13.75
2018-05-04T00:40:06.085Z,13.69
2018-05-04T00:41:05.614Z,13.62
2018-05-04T00:42:05.972Z,13.62
2018-05-04T00:43:05.519Z,13.56
2018-05-04T00:44:06.295Z,13.69
2018-05-04T00:45:10.965Z,13.69
2018-05-04T00:46:05.550Z,13.62
2018-05-04T00:47:06.495Z,13.62
2018-05-04T00:48:05.704Z,13.81
2018-05-04T00:49:05.860Z,13.81
2018-05-04T00:50:06.598Z,13.75
2018-05-04T00:51:05.790Z,13.75
2018-05-04T00:52:06.319Z,13.62
2018-05-04T00:53:06.399Z,13.75
2018-05-04T00:54:06.335Z,13.88
2018-05-04T00:55:05.997Z,13.88
2018-05-04T00:56:05.660Z,13.81
2018-05-04T00:57:06.033Z,13.75
2018-05-04T00:58:06.546Z,13.81
2018-05-04T00:59:06.317Z,13.81
2018-05-04T01:00:06.763Z,13.88
2018-05-04T01:01:06.517Z,13.88
2018-05-04T01:02:06.269Z,13.81
2018-05-04T01:03:10.888Z,13.75
2018-05-04T01:04:06.369Z,13.69
2018-05-04T01:05:05.643Z,13.56
2018-05-04T01:06:10.684Z,13.56
2018-05-04T01:07:11.322Z,13.50
2018-05-04T01:08:06.022Z,13.56
2018-05-04T01:09:10.572Z,13.50
2018-05-04T01:10:06.259Z,13.44
2018-05-04T01:11:05.930Z,13.44
2018-05-04T01:12:06.511Z,13.38
2018-05-04T01:13:05.812Z,13.31
2018-05-04T01:14:06.065Z,13.38
2018-05-04T01:15:05.628Z,13.44
2018-05-04T01:16:05.531Z,13.44
2018-05-04T01:17:05.801Z,13.31
2018-05-04T01:18:06.305Z,13.38
2018-05-04T01:19:10.614Z,13.44
2018-05-04T01:20:06.577Z,13.44
2018-05-04T01:21:05.982Z,13.38
2018-05-04T01:22:06.252Z,13.38
2018-05-04T01:23:06.098Z,13.31
2018-05-04T01:24:06.561Z,13.31
2018-05-04T01:25:06.256Z,13.31
2018-05-04T01:26:06.438Z,13.31
2018-05-04T01:27:06.333Z,13.25
2018-05-04T01:28:06.090Z,13.12
2018-05-04T01:29:06.156Z,13.06
2018-05-04T01:30:05.708Z,13.12
2018-05-04T01:31:06.421Z,13.12
2018-05-04T01:32:06.915Z,13.12
2018-05-04T01:33:11.113Z,13.19
2018-05-04T01:34:05.534Z,13.19
2018-05-04T01:35:06.333Z,13.38
2018-05-04T01:36:06.356Z,13.44
2018-05-04T01:37:05.637Z,13.50
2018-05-04T01:38:05.992Z,13.56
2018-05-04T01:39:06.447Z,13.50
2018-05-04T01:40:06.581Z,13.62
2018-05-04T01:41:06.329Z,13.56
2018-05-04T01:42:06.334Z,13.50
2018-05-04T01:43:06.016Z,13.56
2018-05-04T01:44:06.185Z,13.50
2018-05-04T01:45:05.931Z,13.38
2018-05-04T01:46:05.949Z,13.38
2018-05-04T01:47:05.952Z,13.25
2018-05-04T01:48:11.752Z,13.19
2018-05-04T01:49:06.422Z,13.25
2018-05-04T01:50:06.188Z,13.38
2018-05-04T01:51:06.054Z,13.25
2018-05-04T01:52:11.235Z,13.25
2018-05-04T01:53:05.942Z,13.25
2018-05-04T01:54:06.489Z,13.19
2018-05-04T01:55:06.177Z,13.12
2018-05-04T01:56:05.984Z,13.19
2018-05-04T01:57:05.627Z,13.19
2018-05-04T01:58:06.351Z,13.12
2018-05-04T01:59:10.937Z,13.25
2018-05-04T02:00:05.638Z,13.06
2018-05-04T02:01:06.261Z,13.06
2018-05-04T02:02:06.638Z,12.94
2018-05-04T02:03:06.360Z,12.88
2018-05-04T02:04:06.591Z,12.81
2018-05-04T02:05:05.602Z,13.00
2018-05-04T02:06:06.504Z,12.94
2018-05-04T02:07:06.413Z,12.94
2018-05-04T02:08:06.361Z,13.00
2018-05-04T02:09:05.448Z,13.06
2018-05-04T02:10:05.609Z,13.06
2018-05-04T02:11:05.926Z,13.12
2018-05-04T02:12:05.936Z,13.12
2018-05-04T02:13:05.617Z,13.12
2018-05-04T02:14:05.861Z,13.00
2018-05-04T02:15:05.711Z,12.94
2018-05-04T02:16:05.857Z,12.88
2018-05-04T02:17:05.937Z,12.81
2018-05-04T02:18:11.011Z,12.75
2018-05-04T02:19:05.693Z,12.75
2018-05-04T02:20:05.747Z,12.69
2018-05-04T02:21:06.749Z,12.62
2018-05-04T02:22:11.415Z,12.56
2018-05-04T02:23:06.116Z,12.62
2018-05-04T02:24:06.026Z,12.62
2018-05-04T02:25:06.109Z,12.62
2018-05-04T02:26:05.762Z,12.62
2018-05-04T02:27:06.040Z,12.62
2018-05-04T02:28:05.713Z,12.56
2018-05-04T02:29:06.411Z,12.50
2018-05-04T02:30:05.851Z,12.44
2018-05-04T02:31:05.781Z,12.50
2018-05-04T02:32:06.369Z,12.44
2018-05-04T02:33:06.484Z,12.38
2018-05-04T02:34:06.264Z,12.38
2018-05-04T02:35:06.334Z,12.38
2018-05-04T02:36:05.530Z,12.38
2018-05-04T02:37:05.700Z,12.38
2018-05-04T02:38:05.709Z,12.44
2018-05-04T02:39:06.497Z,12.44
2018-05-04T02:40:06.534Z,12.44
2018-05-04T02:41:06.819Z,12.38
2018-05-04T02:42:10.622Z,12.31
2018-05-04T02:43:06.248Z,12.25
2018-05-04T02:44:05.685Z,12.31
2018-05-04T02:45:05.872Z,12.31
2018-05-04T02:46:06.379Z,12.38
2018-05-04T02:47:06.344Z,12.38
2018-05-04T02:48:06.334Z,12.31
2018-05-04T02:49:06.228Z,12.50
2018-05-04T02:50:06.093Z,12.44
2018-05-04T02:51:06.554Z,12.44
2018-05-04T02:52:06.263Z,12.44
2018-05-04T02:53:06.345Z,12.31
2018-05-04T02:54:06.034Z,12.25
2018-05-04T02:55:05.992Z,12.12
2018-05-04T02:56:05.614Z,12.06
2018-05-04T02:57:06.364Z,12.00
2018-05-04T02:58:05.777Z,12.06
2018-05-04T02:59:05.950Z,12.00
2018-05-04T03:00:06.407Z,11.94
2018-05-04T03:01:05.718Z,12.00
2018-05-04T03:02:05.791Z,12.12
2018-05-04T03:03:05.675Z,12.12
2018-05-04T03:04:06.508Z,12.19
2018-05-04T03:05:06.587Z,12.12
2018-05-04T03:06:05.776Z,12.12
2018-05-04T03:07:05.721Z,12.12
2018-05-04T03:08:11.424Z,12.12
2018-05-04T03:09:05.855Z,12.19
2018-05-04T03:10:06.481Z,12.19
2018-05-04T03:11:06.271Z,12.25
2018-05-04T03:12:10.851Z,12.19
2018-05-04T03:13:05.533Z,12.25
2018-05-04T03:14:06.171Z,12.25
2018-05-04T03:15:06.177Z,12.25
2018-05-04T03:16:05.845Z,12.25
2018-05-04T03:17:11.407Z,12.19
2018-05-04T03:18:06.177Z,12.19
2018-05-04T03:19:05.933Z,12.38
2018-05-04T03:20:05.776Z,12.38
2018-05-04T03:21:10.780Z,12.25
2018-05-04T03:22:05.894Z,12.19
2018-05-04T03:23:06.096Z,12.31
2018-05-04T03:24:11.118Z,12.31
2018-05-04T03:25:05.694Z,12.25
2018-05-04T03:26:05.854Z,12.19
2018-05-04T03:27:05.861Z,12.31
2018-05-04T03:28:06.018Z,12.38
2018-05-04T03:29:05.826Z,12.62
2018-05-04T03:30:10.787Z,12.38
2018-05-04T03:31:06.347Z,12.31
2018-05-04T03:32:06.168Z,12.38
2018-05-04T03:33:11.108Z,12.31
2018-05-04T03:34:05.849Z,12.31
2018-05-04T03:35:06.327Z,12.31
2018-05-04T03:36:06.248Z,12.31
2018-05-04T03:37:07.074Z,12.31
2018-05-04T03:38:05.847Z,12.31
2018-05-04T03:39:06.115Z,12.31
2018-05-04T03:40:06.264Z,12.31
2018-05-04T03:41:10.948Z,12.38
2018-05-04T03:42:05.469Z,12.38
2018-05-04T03:43:10.763Z,12.50
2018-05-04T03:44:06.416Z,12.56
2018-05-04T03:45:06.642Z,12.62
2018-05-04T03:46:06.070Z,12.88
2018-05-04T03:47:06.714Z,13.06
2018-05-04T03:48:06.712Z,13.12
2018-05-04T03:49:05.701Z,13.12
2018-05-04T03:50:06.319Z,13.06
2018-05-04T03:51:06.170Z,13.06
2018-05-04T03:52:06.736Z,13.25
2018-05-04T03:53:05.696Z,13.19
2018-05-04T03:54:05.745Z,13.25
2018-05-04T03:55:06.578Z,13.19
2018-05-04T03:56:05.929Z,13.19
2018-05-04T03:57:05.946Z,13.06
2018-05-04T03:58:10.792Z,13.06
2018-05-04T03:59:06.150Z,13.38
2018-05-04T04:00:05.707Z,13.44
2018-05-04T04:01:06.091Z,13.38
2018-05-04T04:02:05.939Z,13.25
2018-05-04T04:03:06.510Z,13.25
2018-05-04T04:04:10.462Z,13.12
2018-05-04T04:05:06.900Z,13.12
2018-05-04T04:06:06.331Z,13.06
2018-05-04T04:07:06.031Z,13.12
2018-05-04T04:08:05.934Z,13.12
2018-05-04T04:09:05.625Z,13.06
2018-05-04T04:10:06.197Z,13.00
2018-05-04T04:11:05.788Z,13.00
2018-05-04T04:12:06.326Z,13.00
2018-05-04T04:13:06.013Z,13.12
2018-05-04T04:14:06.758Z,13.12
2018-05-04T04:15:06.118Z,13.12
2018-05-04T04:16:06.101Z,13.12
2018-05-04T04:17:06.330Z,13.12
2018-05-04T04:18:05.768Z,13.06
2018-05-04T04:19:05.697Z,13.06
2018-05-04T04:20:06.498Z,13.19
2018-05-04T04:21:06.263Z,13.19
2018-05-04T04:22:06.223Z,13.19
2018-05-04T04:23:05.848Z,13.31
2018-05-04T04:24:06.013Z,13.25
2018-05-04T04:25:06.351Z,13.31
2018-05-04T04:26:05.957Z,13.56
2018-05-04T04:27:06.654Z,13.50
2018-05-04T04:28:06.367Z,13.62
2018-05-04T04:29:06.420Z,13.81
2018-05-04T04:30:05.851Z,13.69
2018-05-04T04:31:06.832Z,13.94
2018-05-04T04:32:05.921Z,13.81
2018-05-04T04:33:06.947Z,13.88
2018-05-04T04:34:06.255Z,13.69
2018-05-04T04:35:05.849Z,13.62
2018-05-04T04:36:05.794Z,13.62
2018-05-04T04:37:06.198Z,13.69
2018-05-04T04:38:05.700Z,13.81
2018-05-04T04:39:06.275Z,13.75
2018-05-04T04:40:05.698Z,13.75
2018-05-04T04:41:05.957Z,13.62
2018-05-04T04:42:06.132Z,13.88
2018-05-04T04:43:11.253Z,13.62
2018-05-04T04:44:06.365Z,13.38
2018-05-04T04:45:06.124Z,13.38
2018-05-04T04:46:06.397Z,13.38
2018-05-04T04:47:06.502Z,13.25
2018-05-04T04:48:06.330Z,13.25
2018-05-04T04:49:06.418Z,13.25
2018-05-04T04:50:05.937Z,13.06
2018-05-04T04:51:06.542Z,13.00
2018-05-04T04:52:06.272Z,13.06
2018-05-04T04:53:06.412Z,13.00
2018-05-04T04:54:06.420Z,13.12
2018-05-04T04:55:05.581Z,13.19
2018-05-04T04:56:05.796Z,13.25
2018-05-04T04:57:11.212Z,13.25
2018-05-04T04:58:06.640Z,13.31
2018-05-04T04:59:05.793Z,13.31
2018-05-04T05:00:06.513Z,13.31
2018-05-04T05:01:11.571Z,13.50
2018-05-04T05:02:06.326Z,13.69
2018-05-04T05:03:06.117Z,13.81
2018-05-04T05:04:05.539Z,14.00
2018-05-04T05:05:06.556Z,14.00
2018-05-04T05:06:05.733Z,14.19
2018-05-04T05:07:06.416Z,13.94
2018-05-04T05:08:08.484Z,14.12
2018-05-04T05:09:05.871Z,13.94
2018-05-04T05:10:06.606Z,14.25
2018-05-04T05:11:05.863Z,14.19
2018-05-04T05:12:06.735Z,13.94
2018-05-04T05:13:06.504Z,13.88
2018-05-04T05:14:05.722Z,13.81
2018-05-04T05:15:05.803Z,13.69
2018-05-04T05:16:06.663Z,13.56
2018-05-04T05:17:06.754Z,13.56
2018-05-04T05:18:05.864Z,13.56
2018-05-04T05:19:07.250Z,13.38
2018-05-04T05:20:06.179Z,13.44
2018-05-04T05:21:10.808Z,13.50
2018-05-04T05:22:05.805Z,13.44
2018-05-04T05:23:06.396Z,13.56
2018-05-04T05:24:05.605Z,13.44
2018-05-04T05:25:05.937Z,13.31
2018-05-04T05:26:05.617Z,13.12
2018-05-04T05:27:06.552Z,13.06
2018-05-04T05:28:06.553Z,12.94
2018-05-04T05:29:06.077Z,13.00
2018-05-04T05:30:06.019Z,13.12
2018-05-04T05:31:11.881Z,12.94
2018-05-04T05:32:06.500Z,12.94
2018-05-04T05:33:06.202Z,13.00
2018-05-04T05:34:06.341Z,13.00
2018-05-04T05:35:06.015Z,13.31
2018-05-04T05:36:06.649Z,13.19
2018-05-04T05:37:11.514Z,13.25
2018-05-04T05:38:06.017Z,13.19
2018-05-04T05:39:06.554Z,13.38
2018-05-04T05:40:06.277Z,13.50
2018-05-04T05:41:06.346Z,13.88
2018-05-04T05:42:07.084Z,13.81
2018-05-04T05:43:11.227Z,13.69
2018-05-04T05:44:06.635Z,13.69
2018-05-04T05:45:05.861Z,13.69
2018-05-04T05:46:06.882Z,13.81
2018-05-04T05:47:10.611Z,13.75
2018-05-04T05:48:06.423Z,13.81
2018-05-04T05:49:06.129Z,13.75
2018-05-04T05:50:06.587Z,13.38
2018-05-04T05:51:06.651Z,13.31
2018-05-04T05:52:06.059Z,13.31
2018-05-04T05:53:05.713Z,13.25
2018-05-04T05:54:05.970Z,13.19
2018-05-04T05:55:05.862Z,13.25
2018-05-04T05:56:10.590Z,13.38
2018-05-04T05:57:07.081Z,13.50
2018-05-04T05:58:06.186Z,13.38
2018-05-04T05:59:06.414Z,13.19
2018-05-04T06:00:06.814Z,13.38
2018-05-04T06:01:05.704Z,13.38
2018-05-04T06:02:05.708Z,13.31
2018-05-04T06:03:05.613Z,13.25
2018-05-04T06:04:06.028Z,13.31
2018-05-04T06:05:07.330Z,13.44
2018-05-04T06:06:06.376Z,13.50
2018-05-04T06:07:06.256Z,13.50
2018-05-04T06:08:05.949Z,13.50
2018-05-04T06:09:05.633Z,13.38
2018-05-04T06:10:06.302Z,13.31
2018-05-04T06:11:06.021Z,13.19
2018-05-04T06:12:05.766Z,13.31
2018-05-04T06:13:06.282Z,13.19
2018-05-04T06:14:07.080Z,13.12
2018-05-04T06:15:06.054Z,13.31
2018-05-04T06:16:06.147Z,13.25
2018-05-04T06:17:05.667Z,13.19
2018-05-04T06:18:10.932Z,13.25
2018-05-04T06:19:05.617Z,13.38
2018-05-04T06:20:11.210Z,13.25
2018-05-04T06:21:06.669Z,13.25
2018-05-04T06:22:05.816Z,13.19
2018-05-04T06:23:05.854Z,13.25
2018-05-04T06:24:05.976Z,13.25
2018-05-04T06:25:06.231Z,13.19
2018-05-04T06:26:06.099Z,13.25
2018-05-04T06:27:06.250Z,13.25
2018-05-04T06:28:06.427Z,13.50
2018-05-04T06:29:05.781Z,13.25
2018-05-04T06:30:07.312Z,13.25
2018-05-04T06:31:05.697Z,13.12
2018-05-04T06:32:05.710Z,13.19
2018-05-04T06:33:05.578Z,13.19
2018-05-04T06:34:05.848Z,13.12
2018-05-04T06:35:05.671Z,13.12
2018-05-04T06:36:06.415Z,13.12
2018-05-04T06:37:11.043Z,13.06
2018-05-04T06:38:05.705Z,13.12
2018-05-04T06:39:05.568Z,13.19
2018-05-04T06:40:06.251Z,13.25
2018-05-04T06:41:11.418Z,13.31
2018-05-04T06:42:06.177Z,13.25
2018-05-04T06:43:06.260Z,13.38
2018-05-04T06:44:06.424Z,13.44
2018-05-04T06:45:05.746Z,13.38
2018-05-04T06:46:05.862Z,13.31
2018-05-04T06:47:11.083Z,13.19
2018-05-04T06:48:06.140Z,13.19
2018-05-04T06:49:06.721Z,13.25
2018-05-04T06:50:05.867Z,13.12
2018-05-04T06:51:06.759Z,13.19
2018-05-04T06:52:06.904Z,13.31
2018-05-04T06:53:06.760Z,13.31
2018-05-04T06:54:05.542Z,13.19
2018-05-04T06:55:06.428Z,13.31
2018-05-04T06:56:05.960Z,13.12
2018-05-04T06:57:06.260Z,13.19
2018-05-04T06:58:05.940Z,13.25
2018-05-04T06:59:05.558Z,13.25
2018-05-04T07:00:11.501Z,13.31
2018-05-04T07:01:05.823Z,13.25
2018-05-04T07:02:06.257Z,13.19
2018-05-04T07:03:06.651Z,13.12
2018-05-04T07:04:05.937Z,13.12
2018-05-04T07:05:05.732Z,13.12
2018-05-04T07:06:05.778Z,13.38
2018-05-04T07:07:05.864Z,13.38
2018-05-04T07:08:05.622Z,13.50
2018-05-04T07:09:06.669Z,13.75
2018-05-04T07:10:05.696Z,13.69
2018-05-04T07:11:05.850Z,13.56
2018-05-04T07:12:05.870Z,13.44
2018-05-04T07:13:06.028Z,13.75
2018-05-04T07:14:05.689Z,13.56
2018-05-04T07:15:06.402Z,13.62
2018-05-04T07:16:05.783Z,13.69
2018-05-04T07:17:06.723Z,14.00
2018-05-04T07:18:06.417Z,14.00
2018-05-04T07:19:06.663Z,14.12
2018-05-04T07:20:06.256Z,14.06
2018-05-04T07:21:05.995Z,14.25
2018-05-04T07:22:05.714Z,14.38
2018-05-04T07:23:05.864Z,14.31
2018-05-04T07:24:11.097Z,14.19
2018-05-04T07:25:06.435Z,14.19
2018-05-04T07:26:06.647Z,14.06
2018-05-04T07:27:05.968Z,13.94
2018-05-04T07:28:05.890Z,13.88
2018-05-04T07:29:05.893Z,13.81
2018-05-04T07:30:05.961Z,13.62
2018-05-04T07:31:05.860Z,13.62
2018-05-04T07:32:06.117Z,13.50
2018-05-04T07:33:06.178Z,13.62
2018-05-04T07:34:06.109Z,13.62
2018-05-04T07:35:05.704Z,13.69
2018-05-04T07:36:06.451Z,13.62
2018-05-04T07:37:11.494Z,13.81
2018-05-04T07:38:05.953Z,13.56
2018-05-04T07:39:10.695Z,13.50
2018-05-04T07:40:05.955Z,13.81
2018-05-04T07:41:06.029Z,13.69
2018-05-04T07:42:05.865Z,13.62
2018-05-04T07:43:05.754Z,13.88
2018-05-04T07:44:06.761Z,13.88
2018-05-04T07:45:06.530Z,14.31
2018-05-04T07:46:05.639Z,14.31
2018-05-04T07:47:06.267Z,14.31
2018-05-04T07:48:06.412Z,14.25
2018-05-04T07:49:06.480Z,14.19
2018-05-04T07:50:05.791Z,14.00
2018-05-04T07:51:11.023Z,14.94
2018-05-04T07:52:06.183Z,14.50
2018-05-04T07:53:11.261Z,14.56
2018-05-04T07:54:06.041Z,14.50
2018-05-04T07:55:07.223Z,14.75
2018-05-04T07:56:05.621Z,14.88
2018-05-04T07:57:05.709Z,14.88
2018-05-04T07:58:07.630Z,14.69
2018-05-04T07:59:06.113Z,14.81
2018-05-04T08:00:11.033Z,14.62
2018-05-04T08:01:06.203Z,14.56
2018-05-04T08:02:06.205Z,14.44
2018-05-04T08:03:05.933Z,14.44
2018-05-04T08:04:05.774Z,14.50
2018-05-04T08:05:06.014Z,14.44
2018-05-04T08:06:06.727Z,14.31
2018-05-04T08:07:06.223Z,14.38
2018-05-04T08:08:05.799Z,14.31
2018-05-04T08:09:06.430Z,14.31
2018-05-04T08:10:06.185Z,14.19
2018-05-04T08:11:05.693Z,14.19
2018-05-04T08:12:06.381Z,14.06
2018-05-04T08:13:06.523Z,13.94
2018-05-04T08:14:06.024Z,14.06
2018-05-04T08:15:06.004Z,14.06
2018-05-04T08:16:05.941Z,14.19
2018-05-04T08:17:06.010Z,14.00
2018-05-04T08:18:06.168Z,14.00
2018-05-04T08:19:06.386Z,14.19
2018-05-04T08:20:06.458Z,14.06
2018-05-04T08:21:11.308Z,13.94
2018-05-04T08:22:05.934Z,13.75
2018-05-04T08:23:05.885Z,13.75
2018-05-04T08:24:06.109Z,13.75
2018-05-04T08:25:06.708Z,14.00
2018-05-04T08:26:05.862Z,14.00
2018-05-04T08:27:06.272Z,14.06
2018-05-04T08:28:06.280Z,14.06
2018-05-04T08:29:05.716Z,14.00
2018-05-04T08:30:05.694Z,14.25
2018-05-04T08:31:05.927Z,14.19
2018-05-04T08:32:05.940Z,14.12
2018-05-04T08:33:06.028Z,14.19
2018-05-04T08:34:05.866Z,14.12
2018-05-04T08:35:05.615Z,14.12
2018-05-04T08:36:06.423Z,14.38
2018-05-04T08:37:06.356Z,14.44
2018-05-04T08:38:06.433Z,14.25
2018-05-04T08:39:06.359Z,14.25
2018-05-04T08:40:06.025Z,14.38
2018-05-04T08:41:06.602Z,14.38
2018-05-04T08:42:06.409Z,14.38
2018-05-04T08:43:06.601Z,14.31
2018-05-04T08:44:06.252Z,14.25
2018-05-04T08:45:06.323Z,14.12
2018-05-04T08:46:06.595Z,14.06
2018-05-04T08:47:06.361Z,14.38
2018-05-04T08:48:06.497Z,14.38
2018-05-04T08:49:06.340Z,14.50
2018-05-04T08:50:11.443Z,14.62
2018-05-04T08:51:06.983Z,15.00
2018-05-04T08:52:10.618Z,15.00
2018-05-04T08:53:06.260Z,14.94
2018-05-04T08:54:10.904Z,14.88
2018-05-04T08:55:06.332Z,15.00
2018-05-04T08:56:06.088Z,14.81
2018-05-04T08:57:05.865Z,14.81
2018-05-04T08:58:05.890Z,14.62
2018-05-04T08:59:07.404Z,14.62
2018-05-04T09:00:05.774Z,14.62
2018-05-04T09:01:05.898Z,14.62
2018-05-04T09:02:10.699Z,14.75
2018-05-04T09:03:06.984Z,14.81
2018-05-04T09:04:06.241Z,21.62
2018-05-04T09:05:06.533Z,16.94
2018-05-04T09:06:05.625Z,16.19
2018-05-04T09:07:05.642Z,15.88
2018-05-04T09:08:06.174Z,15.94
2018-05-04T09:09:06.905Z,16.00
2018-05-04T09:10:05.669Z,15.81
2018-05-04T09:11:05.776Z,15.50
2018-05-04T09:12:05.944Z,15.44
2018-05-04T09:13:05.764Z,15.38
2018-05-04T09:14:05.543Z,15.19
2018-05-04T09:15:06.159Z,15.25
2018-05-04T09:16:05.528Z,15.50
2018-05-04T09:17:06.147Z,15.50
2018-05-04T09:18:06.590Z,15.25
2018-05-04T09:19:06.260Z,15.12
2018-05-04T09:20:05.714Z,15.31
2018-05-04T09:21:05.942Z,15.25
2018-05-04T09:22:06.028Z,15.19
2018-05-04T09:23:06.507Z,15.38
2018-05-04T09:24:05.546Z,15.50
2018-05-04T09:25:06.826Z,15.75
2018-05-04T09:26:05.974Z,15.75
2018-05-04T09:27:05.616Z,15.88
2018-05-04T09:28:06.679Z,15.88
2018-05-04T09:29:06.331Z,15.94
2018-05-04T09:30:06.332Z,16.06
2018-05-04T09:31:06.254Z,16.00
2018-05-04T09:32:05.840Z,15.81
2018-05-04T09:33:06.293Z,15.81
2018-05-04T09:34:05.538Z,15.94
2018-05-04T09:35:05.697Z,15.75
2018-05-04T09:36:06.433Z,16.00
2018-05-04T09:37:06.579Z,15.88
2018-05-04T09:38:06.857Z,15.69
2018-05-04T09:39:06.410Z,15.62
2018-05-04T09:40:06.358Z,15.69
2018-05-04T09:41:06.390Z,15.56
2018-05-04T09:42:06.245Z,15.44
2018-05-04T09:43:06.276Z,15.38
2018-05-04T09:44:05.955Z,15.50
2018-05-04T09:45:05.936Z,15.50
2018-05-04T09:46:05.616Z,15.75
2018-05-04T09:47:06.972Z,15.69
2018-05-04T09:48:05.777Z,15.56
2018-05-04T09:49:06.265Z,15.38
2018-05-04T09:50:06.027Z,15.19
2018-05-04T09:51:05.690Z,15.12
2018-05-04T09:52:06.505Z,15.12
2018-05-04T09:53:05.615Z,15.12
2018-05-04T09:54:06.599Z,15.06
2018-05-04T09:55:06.017Z,15.12
2018-05-04T09:56:05.803Z,15.19
2018-05-04T09:57:05.727Z,15.00
2018-05-04T09:58:06.268Z,14.94
2018-05-04T09:59:06.337Z,14.88
2018-05-04T10:00:06.221Z,15.31
2018-05-04T10:01:11.110Z,15.56
2018-05-04T10:02:05.859Z,15.56
2018-05-04T10:03:06.320Z,15.69
2018-05-04T10:04:05.776Z,15.69
2018-05-04T10:05:05.780Z,15.69
2018-05-04T10:06:06.257Z,16.06
2018-05-04T10:07:06.104Z,16.06
2018-05-04T10:08:06.041Z,16.25
2018-05-04T10:09:06.715Z,16.25
2018-05-04T10:10:06.067Z,16.06
2018-05-04T10:11:05.871Z,16.12
2018-05-04T10:12:05.777Z,16.00
2018-05-04T10:13:05.716Z,15.75
2018-05-04T10:14:05.887Z,15.69
2018-05-04T10:15:05.871Z,15.62
2018-05-04T10:16:07.173Z,15.75
2018-05-04T10:17:05.931Z,15.88
2018-05-04T10:18:06.186Z,15.94
2018-05-04T10:19:11.036Z,15.88
2018-05-04T10:20:05.625Z,15.81
2018-05-04T10:21:05.855Z,15.75
2018-05-04T10:22:06.578Z,15.81
2018-05-04T10:23:05.531Z,15.75
2018-05-04T10:24:06.400Z,15.94
2018-05-04T10:25:06.179Z,15.88
2018-05-04T10:26:05.857Z,15.81
2018-05-04T10:27:06.012Z,15.88
2018-05-04T10:28:06.416Z,15.81
2018-05-04T10:29:06.772Z,15.88
2018-05-04T10:30:05.553Z,15.94
2018-05-04T10:31:11.401Z,15.94
2018-05-04T10:32:06.025Z,16.12
2018-05-04T10:33:06.028Z,16.25
2018-05-04T10:34:05.860Z,16.19
2018-05-04T10:35:06.215Z,16.19
2018-05-04T10:36:05.980Z,16.19
2018-05-04T10:37:06.148Z,16.25
2018-05-04T10:38:05.724Z,16.25
2018-05-04T10:39:05.895Z,16.44
2018-05-04T10:40:06.219Z,16.44
2018-05-04T10:41:05.784Z,16.56
2018-05-04T10:42:10.573Z,16.44
2018-05-04T10:43:06.015Z,16.31
2018-05-04T10:44:05.863Z,16.50
2018-05-04T10:45:06.078Z,16.50
2018-05-04T10:46:06.101Z,16.50
2018-05-04T10:47:06.106Z,16.75
2018-05-04T10:48:06.675Z,16.75
2018-05-04T10:49:06.385Z,16.75
2018-05-04T10:50:05.697Z,16.88
2018-05-04T10:51:11.531Z,16.88
2018-05-04T10:52:06.685Z,16.69
2018-05-04T10:53:06.109Z,16.62
2018-05-04T10:54:06.057Z,16.62
2018-05-04T10:55:06.421Z,16.69
2018-05-04T10:56:06.426Z,16.75
2018-05-04T10:57:05.735Z,16.75
2018-05-04T10:58:05.726Z,16.69
2018-05-04T10:59:05.937Z,16.62
2018-05-04T11:00:05.858Z,16.56
2018-05-04T11:01:05.585Z,16.50
2018-05-04T11:02:06.563Z,16.44
2018-05-04T11:03:06.380Z,16.44
2018-05-04T11:04:06.336Z,16.50
2018-05-04T11:05:06.496Z,16.50
2018-05-04T11:06:05.997Z,16.44
2018-05-04T11:07:06.342Z,16.62
2018-05-04T11:08:06.009Z,16.69
2018-05-04T11:09:05.896Z,16.75
2018-05-04T11:10:06.423Z,16.75
2018-05-04T11:11:06.749Z,17.06
2018-05-04T11:12:06.179Z,17.06
2018-05-04T11:13:06.107Z,16.94
2018-05-04T11:14:05.783Z,16.81
2018-05-04T11:15:06.359Z,16.81
2018-05-04T11:16:06.637Z,16.75
2018-05-04T11:17:05.857Z,16.62
2018-05-04T11:18:06.503Z,16.56
2018-05-04T11:19:06.785Z,16.56
2018-05-04T11:20:05.936Z,16.62
2018-05-04T11:21:06.354Z,16.75
2018-05-04T11:22:06.050Z,16.81
2018-05-04T11:23:06.401Z,16.81
2018-05-04T11:24:06.429Z,16.88
2018-05-04T11:25:11.190Z,17.06
2018-05-04T11:26:05.976Z,17.00
2018-05-04T11:27:06.500Z,16.88
2018-05-04T11:28:06.121Z,17.00
2018-05-04T11:29:06.848Z,17.19
2018-05-04T11:30:06.417Z,17.12
2018-05-04T11:31:05.533Z,17.12
2018-05-04T11:32:05.864Z,17.12
2018-05-04T11:33:05.698Z,17.25
2018-05-04T11:34:05.696Z,17.31
2018-05-04T11:35:06.266Z,17.25
2018-05-04T11:36:06.506Z,17.19
2018-05-04T11:37:06.118Z,17.19
2018-05-04T11:38:05.693Z,17.25
2018-05-04T11:39:06.102Z,17.31
2018-05-04T11:40:07.003Z,17.31
2018-05-04T11:41:06.022Z,17.31
2018-05-04T11:42:05.631Z,17.12
2018-05-04T11:43:06.287Z,17.06
2018-05-04T11:44:05.863Z,17.00
2018-05-04T11:45:05.619Z,16.94
2018-05-04T11:46:05.721Z,17.06
2018-05-04T11:47:11.575Z,17.12
2018-05-04T11:48:05.809Z,17.19
2018-05-04T11:49:05.875Z,17.12
2018-05-04T11:50:06.512Z,17.25
2018-05-04T11:51:06.657Z,17.25
2018-05-04T11:52:06.027Z,17.19
2018-05-04T11:53:06.095Z,17.31
2018-05-04T11:54:05.787Z,17.38
2018-05-04T11:55:06.376Z,17.56
2018-05-04T11:56:05.691Z,17.81
2018-05-04T11:57:05.861Z,17.81
2018-05-04T11:58:05.929Z,17.75
2018-05-04T11:59:06.383Z,18.06
2018-05-04T12:00:05.834Z,17.94
2018-05-04T12:01:06.898Z,17.94
2018-05-04T12:02:06.264Z,18.56
2018-05-04T12:03:05.580Z,18.44
2018-05-04T12:04:06.365Z,18.62
2018-05-04T12:05:06.342Z,18.88
2018-05-04T12:06:06.854Z,18.62
2018-05-04T12:07:06.168Z,18.56
2018-05-04T12:08:06.209Z,18.56
2018-05-04T12:09:06.305Z,18.56
2018-05-04T12:10:05.927Z,18.50
2018-05-04T12:11:05.536Z,18.56
2018-05-04T12:12:06.482Z,18.50
2018-05-04T12:13:06.514Z,18.38
2018-05-04T12:14:11.496Z,18.44
2018-05-04T12:15:06.268Z,18.44
2018-05-04T12:16:05.865Z,18.31
2018-05-04T12:17:06.915Z,18.25
2018-05-04T12:18:06.264Z,18.25
2018-05-04T12:19:06.602Z,18.12
2018-05-04T12:20:06.263Z,18.12
2018-05-04T12:21:05.940Z,18.25
2018-05-04T12:22:06.503Z,18.12
2018-05-04T12:23:06.024Z,18.06
2018-05-04T12:24:06.094Z,18.12
2018-05-04T12:25:05.856Z,18.19
2018-05-04T12:26:07.217Z,18.38
2018-05-04T12:27:06.017Z,18.81
2018-05-04T12:28:06.333Z,18.88
2018-05-04T12:29:11.106Z,18.75
2018-05-04T12:30:05.870Z,18.81
2018-05-04T12:31:05.780Z,18.94
2018-05-04T12:32:11.475Z,18.81
2018-05-04T12:33:06.095Z,18.88
2018-05-04T12:34:06.344Z,18.81
2018-05-04T12:35:06.137Z,18.75
2018-05-04T12:36:05.949Z,19.00
2018-05-04T12:37:06.381Z,18.88
2018-05-04T12:38:06.191Z,18.88
2018-05-04T12:39:05.716Z,18.88
2018-05-04T12:40:05.642Z,18.75
2018-05-04T12:41:06.014Z,18.81
2018-05-04T12:42:06.022Z,19.25
2018-05-04T12:43:06.178Z,19.31
2018-05-04T12:44:06.128Z,19.25
2018-05-04T12:45:06.095Z,18.94
2018-05-04T12:46:05.537Z,18.88
2018-05-04T12:47:06.215Z,19.31
2018-05-04T12:48:06.407Z,19.31
2018-05-04T12:49:05.829Z,19.12
2018-05-04T12:50:06.423Z,19.06
2018-05-04T12:51:11.518Z,19.00
2018-05-04T12:52:06.108Z,19.38